Time;durP1;ratioP1;P1;durP2;ratioP2;P2;SDS_P1;SDS_P2;PMS_P1;PMS_P2;Temp;Humidity;BMP_temperature;BMP_pressure;BME280_temperature;BME280_humidity;BME280_pressure;Samples;Min_cycle;Max_cycle;Signal;HPM_P1;HPM_P2
2022/06/19 00:01:18;;;;;;;1.10;0.77;;;;;;;28.29;41.67;100146.50;5190367;28;20040;-79
2022/06/19 00:03:54;;;;;;;0.70;0.68;;;;;;;28.26;41.92;100151.22;5181792;28;20453;-79
2022/06/19 00:06:25;;;;;;;1.65;1.17;;;;;;;28.24;42.08;100152.41;5199417;28;20116;-79
2022/06/19 00:08:55;;;;;;;1.17;1.08;;;;;;;28.20;42.14;100149.22;5165982;28;20329;-79
2022/06/19 00:11:27;;;;;;;0.88;0.88;;;;;;;28.15;41.92;100143.47;5197866;28;20196;-80
2022/06/19 00:13:57;;;;;;;1.10;0.93;;;;;;;28.13;41.68;100139.28;5192696;28;20025;-80
2022/06/19 00:16:28;;;;;;;1.02;0.90;;;;;;;28.11;42.26;100125.97;5185186;28;20285;-79
2022/06/19 00:18:59;;;;;;;0.77;0.75;;;;;;;28.08;42.31;100120.91;5166222;28;20033;-79
2022/06/19 00:21:29;;;;;;;0.60;0.52;;;;;;;28.05;42.54;100110.44;5171247;28;20571;-78
2022/06/19 00:24:00;;;;;;;1.35;1.17;;;;;;;27.98;42.48;100118.38;5180692;28;20026;-79
2022/06/19 00:26:31;;;;;;;1.10;1.00;;;;;;;27.96;42.48;100110.47;5154137;28;20046;-79
2022/06/19 00:29:01;;;;;;;4.65;1.65;;;;;;;27.94;42.66;100092.75;5162601;28;20037;-79
2022/06/19 00:31:32;;;;;;;1.52;1.00;;;;;;;27.90;42.65;100100.34;5179719;28;20056;-80
2022/06/19 00:34:03;;;;;;;1.63;1.52;;;;;;;27.88;42.90;100094.28;5166757;28;20040;-81
2022/06/19 00:36:34;;;;;;;1.42;1.05;;;;;;;27.82;42.82;100089.56;5166086;28;20038;-81
2022/06/19 00:39:04;;;;;;;2.47;1.77;;;;;;;27.81;42.70;100085.19;5173727;28;20517;-80
2022/06/19 00:41:41;;;;;;;0.60;0.60;;;;;;;27.80;43.19;100080.81;5173234;28;20044;-82
2022/06/19 00:44:14;;;;;;;1.42;1.33;;;;;;;27.75;42.73;100061.59;5157713;28;20394;-80
2022/06/19 00:46:59;;;;;;;0.93;0.93;;;;;;;27.71;43.55;100065.66;5172465;28;20052;-81
2022/06/19 00:49:37;;;;;;;1.67;1.45;;;;;;;27.65;43.28;100056.41;5187780;28;20095;-81
2022/06/19 00:52:13;;;;;;;0.77;0.77;;;;;;;27.62;43.52;100051.34;5190245;28;20021;-80
2022/06/19 00:54:58;;;;;;;1.48;1.38;;;;;;;27.57;43.36;100053.72;5174841;28;20041;-80
2022/06/19 00:57:32;;;;;;;0.52;0.52;;;;;;;27.54;43.70;100054.91;5177578;28;20034;-80
2022/06/19 01:00:14;;;;;;;7.07;1.08;;;;;;;27.46;43.72;100055.72;5202668;28;20069;-80
2022/06/19 01:02:44;;;;;;;1.35;1.25;;;;;;;27.45;43.33;100037.06;5164526;28;20119;-80
2022/06/19 01:05:16;;;;;;;0.90;0.90;;;;;;;27.40;43.53;100036.66;5196664;28;20029;-80
2022/06/19 01:07:46;;;;;;;0.65;0.57;;;;;;;27.39;43.89;100030.44;5171888;28;20029;-79
2022/06/19 01:10:17;;;;;;;0.85;0.80;;;;;;;27.36;43.78;100019.16;5169704;28;20048;-80
2022/06/19 01:12:48;;;;;;;0.55;0.55;;;;;;;27.34;43.80;100030.13;5178315;28;20025;-81
2022/06/19 01:15:23;;;;;;;1.20;1.00;;;;;;;27.31;44.14;100017.81;5180249;28;20520;-80
2022/06/19 01:17:58;;;;;;;0.88;0.88;;;;;;;27.26;44.10;100016.66;5166631;28;20034;-80
2022/06/19 01:20:31;;;;;;;1.00;0.95;;;;;;;27.25;43.87;100013.09;5167443;28;20044;-80
2022/06/19 01:23:36;;;;;;;0.68;0.68;;;;;;;27.18;44.25;100014.78;5159158;28;20033;-80
2022/06/19 01:26:12;;;;;;;0.60;0.60;;;;;;;27.15;44.51;100012.41;5164786;28;20033;-81
2022/06/19 01:28:45;;;;;;;1.40;0.88;;;;;;;27.12;44.11;100005.53;5183985;28;20033;-80
2022/06/19 01:31:19;;;;;;;0.80;0.80;;;;;;;27.05;45.13;100007.19;5155285;28;20034;-80
2022/06/19 01:33:59;;;;;;;6.95;0.88;;;;;;;27.06;44.82;100008.88;5170080;28;20032;-80
2022/06/19 01:36:32;;;;;;;0.73;0.73;;;;;;;27.02;44.56;100008.38;5156523;28;20034;-80
2022/06/19 01:39:03;;;;;;;;;;;;;;;26.98;44.73;99996.25;5175881;28;20030;-79
2022/06/19 01:41:34;;;;;;;1.45;1.35;;;;;;;26.93;44.35;99998.63;5196249;28;21016;-79
2022/06/19 01:44:06;;;;;;;;;;;;;;;26.93;44.72;99989.72;5190964;28;20503;-79
2022/06/19 01:46:37;;;;;;;1.48;1.23;;;;;;;26.88;44.97;99979.44;5176262;28;19921;-81
2022/06/19 01:49:07;;;;;;;14.85;1.77;;;;;;;26.85;45.05;99980.63;5174945;28;20503;-80
2022/06/19 01:51:38;;;;;;;0.32;0.32;;;;;;;26.83;44.87;99984.47;5152610;28;20034;-80
2022/06/19 01:54:18;;;;;;;1.40;1.30;;;;;;;26.77;44.84;99983.28;5190519;28;20038;-78
2022/06/19 01:56:52;;;;;;;0.85;0.85;;;;;;;26.76;45.22;99976.22;5158847;28;20042;-81
2022/06/19 01:59:27;;;;;;;0.73;0.73;;;;;;;26.74;45.16;99982.72;5171388;28;20026;-79
2022/06/19 02:01:59;;;;;;;5.07;1.63;;;;;;;26.66;46.50;99987.09;5189269;28;20165;-81
2022/06/19 02:04:31;;;;;;;0.75;0.75;;;;;;;26.64;48.37;100005.25;5176471;28;20034;-81
2022/06/19 02:07:07;;;;;;;3.50;1.88;;;;;;;26.49;48.00;100004.19;5189502;28;20065;-80
2022/06/19 02:09:37;;;;;;;2.90;1.90;;;;;;;26.51;48.21;99992.28;5146375;28;20068;-80
2022/06/19 02:12:09;;;;;;;1.25;1.17;;;;;;;26.50;47.34;99992.41;5185829;28;20029;-80
2022/06/19 02:14:40;;;;;;;1.37;0.70;;;;;;;26.43;47.27;99991.38;5169128;28;20453;-80
2022/06/19 02:17:19;;;;;;;0.60;0.60;;;;;;;26.43;47.42;99992.25;5160461;28;20038;-80
2022/06/19 02:19:50;;;;;;;0.73;0.73;;;;;;;26.36;46.88;99985.84;5174649;28;20049;-81
2022/06/19 02:22:20;;;;;;;1.05;0.98;;;;;;;26.38;48.10;100002.63;5168608;28;20120;-82
2022/06/19 02:24:51;;;;;;;0.63;0.63;;;;;;;26.32;48.24;100011.34;5171799;28;21117;-81
2022/06/19 02:27:23;;;;;;;0.60;0.60;;;;;;;26.18;48.32;100015.50;5217004;28;20025;-81
2022/06/19 02:29:54;;;;;;;0.40;0.40;;;;;;;25.83;49.32;100018.13;5201990;28;20546;-81
2022/06/19 02:32:35;;;;;;;0.55;0.40;;;;;;;25.77;49.94;100024.97;5182472;28;20029;-80
2022/06/19 02:35:10;;;;;;;0.73;0.43;;;;;;;25.65;50.09;100045.06;5172941;28;20086;-80
2022/06/19 02:37:45;;;;;;;2.67;0.77;;;;;;;25.22;51.38;100086.94;5178610;28;20036;-82
2022/06/19 02:40:48;;;;;;;0.95;0.85;;;;;;;24.91;51.65;100109.59;5195845;28;20046;-80
2022/06/19 02:43:27;;;;;;;0.52;0.52;;;;;;;24.87;50.17;100048.31;5140417;28;20045;-80
2022/06/19 02:46:02;;;;;;;0.75;0.70;;;;;;;24.97;48.91;100011.53;5194889;28;20097;-83
2022/06/19 02:48:33;;;;;;;0.30;0.30;;;;;;;24.83;48.17;100029.00;5189494;28;20033;-80
2022/06/19 02:51:05;;;;;;;1.25;0.68;;;;;;;24.73;47.97;100069.31;5179661;28;20502;-82
2022/06/19 02:53:38;;;;;;;0.28;0.28;;;;;;;24.47;48.15;100145.03;5167965;28;20057;-80
2022/06/19 02:56:10;;;;;;;0.35;0.35;;;;;;;24.25;48.36;100073.03;5191760;28;20275;-81
2022/06/19 02:58:40;;;;;;;0.13;0.13;;;;;;;24.32;47.90;100039.28;5152222;28;20113;-81
2022/06/19 03:01:11;;;;;;;0.20;0.20;;;;;;;24.25;47.52;100070.34;5167794;28;20128;-80
2022/06/19 03:03:41;;;;;;;0.30;0.30;;;;;;;24.04;48.11;100115.13;5177560;28;20025;-80
2022/06/19 03:06:12;;;;;;;0.47;0.47;;;;;;;23.85;48.73;100107.91;5145013;28;20045;-80
2022/06/19 03:08:42;;;;;;;0.70;0.70;;;;;;;23.86;47.36;100071.25;5169519;28;20385;-82
2022/06/19 03:11:13;;;;;;;0.40;0.40;;;;;;;23.71;48.09;100111.03;5143564;28;20041;-80
2022/06/19 03:13:43;;;;;;;0.63;0.60;;;;;;;23.64;48.02;100117.94;5181518;28;20506;-80
2022/06/19 03:16:14;;;;;;;0.40;0.40;;;;;;;23.41;49.22;100144.97;5169762;28;20046;-80
2022/06/19 03:18:44;;;;;;;0.63;0.60;;;;;;;23.16;49.55;100152.50;5174641;28;20025;-81
2022/06/19 03:21:15;;;;;;;0.38;0.38;;;;;;;23.24;48.27;100133.09;5156813;28;20072;-82
2022/06/19 03:23:45;;;;;;;0.60;0.55;;;;;;;23.11;48.77;100141.38;5153675;28;20025;-80
2022/06/19 03:26:16;;;;;;;0.20;0.20;;;;;;;23.06;48.36;100162.34;5199784;28;20034;-80
2022/06/19 03:28:46;;;;;;;0.30;0.30;;;;;;;23.01;47.77;100159.25;5183217;28;20021;-80
2022/06/19 03:31:23;;;;;;;0.38;0.38;;;;;;;23.01;47.38;100165.41;5171469;28;20037;-80
2022/06/19 03:33:54;;;;;;;1.65;0.60;;;;;;;22.88;48.23;100173.69;5190210;28;20246;-80
2022/06/19 03:36:25;;;;;;;0.43;0.43;;;;;;;22.92;47.79;100172.44;5175644;28;20038;-80
2022/06/19 03:38:56;;;;;;;1.00;0.70;;;;;;;22.78;47.33;100191.50;5145235;28;20121;-80
2022/06/19 03:41:26;;;;;;;1.35;0.90;;;;;;;22.66;48.43;100195.25;5155394;28;20219;-80
2022/06/19 03:43:57;;;;;;;0.22;0.22;;;;;;;22.56;48.07;100222.78;5198883;28;20022;-79
2022/06/19 03:46:27;;;;;;;0.20;0.20;;;;;;;22.56;47.33;100229.97;5147399;28;20050;-82
2022/06/19 03:48:58;;;;;;;1.73;1.23;;;;;;;22.40;48.33;100243.78;5144672;28;20050;-80
2022/06/19 03:51:29;;;;;;;0.63;0.63;;;;;;;22.35;48.54;100245.97;5141757;28;20049;-80
2022/06/19 03:54:00;;;;;;;2.58;1.50;;;;;;;22.19;48.27;100230.38;5172953;28;20835;-79
2022/06/19 03:56:32;;;;;;;9.68;1.88;;;;;;;22.10;48.57;100266.75;5150808;28;20102;-81
2022/06/19 03:59:03;;;;;;;0.45;0.45;;;;;;;22.05;48.17;100271.59;5167910;28;20092;-82
2022/06/19 04:01:36;;;;;;;0.47;0.47;;;;;;;21.80;48.15;100294.97;5165490;28;20041;-80
2022/06/19 04:04:09;;;;;;;0.30;0.30;;;;;;;21.81;48.18;100308.22;5206371;28;20025;-82
2022/06/19 04:06:41;;;;;;;0.13;0.13;;;;;;;21.52;48.64;100306.03;5171430;28;20045;-79
2022/06/19 04:09:15;;;;;;;0.53;0.53;;;;;;;21.62;47.91;100287.47;5183377;28;20049;-80
2022/06/19 04:11:46;;;;;;;1.15;0.68;;;;;;;21.45;47.58;100295.97;5137335;28;20041;-81
2022/06/19 04:14:16;;;;;;;0.75;0.75;;;;;;;21.44;47.15;100295.13;5172420;28;20696;-79
2022/06/19 04:16:47;;;;;;;0.40;0.40;;;;;;;21.18;47.46;100310.53;5164868;28;20161;-81
2022/06/19 04:19:17;;;;;;;1.27;1.13;;;;;;;21.23;47.01;100308.34;5179432;28;20547;-80
2022/06/19 04:21:49;;;;;;;0.52;0.52;;;;;;;21.20;46.38;100309.44;5170766;28;20082;-80
2022/06/19 04:24:20;;;;;;;0.57;0.57;;;;;;;21.12;46.58;100308.31;5195958;28;20038;-81
2022/06/19 04:26:51;;;;;;;0.40;0.40;;;;;;;20.88;46.52;100282.59;5160049;28;20042;-81
2022/06/19 04:29:22;;;;;;;3.83;1.25;;;;;;;20.88;46.37;100282.59;5184194;28;20022;-80
2022/06/19 04:31:55;;;;;;;1.17;0.63;;;;;;;20.97;46.36;100260.56;5173209;28;20534;-79
2022/06/19 04:34:26;;;;;;;0.47;0.47;;;;;;;20.95;45.91;100265.16;5184145;28;20029;-80
2022/06/19 04:36:57;;;;;;;5.50;0.88;;;;;;;20.88;45.87;100277.28;5185322;28;20029;-81
2022/06/19 04:39:27;;;;;;;2.38;1.05;;;;;;;20.83;46.13;100284.78;5192953;28;20065;-80
2022/06/19 04:41:58;;;;;;;7.10;1.95;;;;;;;20.78;46.13;100285.16;5182192;28;20032;-81
2022/06/19 04:44:28;;;;;;;0.32;0.32;;;;;;;20.70;46.32;100283.03;5191748;28;20060;-80
2022/06/19 04:46:59;;;;;;;0.20;0.20;;;;;;;20.70;45.78;100275.03;5192367;28;20092;-79
2022/06/19 04:49:29;;;;;;;0.60;0.60;;;;;;;20.65;45.94;100266.56;5183516;28;20386;-81
2022/06/19 04:52:00;;;;;;;1.05;1.05;;;;;;;20.48;46.25;100264.31;5190781;28;20025;-80
2022/06/19 04:54:30;;;;;;;4.50;0.57;;;;;;;20.49;46.55;100260.69;5167673;28;20033;-81
2022/06/19 04:57:01;;;;;;;1.75;1.33;;;;;;;20.55;45.91;100277.06;5205642;28;20593;-80
2022/06/19 04:59:35;;;;;;;0.30;0.30;;;;;;;20.62;45.98;100357.41;5169882;28;20106;-81
2022/06/19 05:02:06;;;;;;;2.42;1.27;;;;;;;20.56;46.03;100360.53;5184256;28;20025;-80
2022/06/19 05:04:36;;;;;;;0.70;0.65;;;;;;;20.52;45.97;100314.59;5196401;28;20519;-79
2022/06/19 05:07:07;;;;;;;0.10;0.10;;;;;;;20.48;45.88;100297.16;5160195;28;20076;-80
2022/06/19 05:09:37;;;;;;;1.13;0.75;;;;;;;20.50;46.00;100315.69;5179737;28;20085;-81
2022/06/19 05:12:08;;;;;;;0.63;0.55;;;;;;;20.40;45.67;100326.19;5208538;28;20037;-80
2022/06/19 05:14:39;;;;;;;0.45;0.45;;;;;;;20.37;46.24;100327.25;5151322;28;20122;-81
2022/06/19 05:17:09;;;;;;;0.40;0.40;;;;;;;20.43;45.66;100309.97;5183243;28;20076;-81
2022/06/19 05:19:41;;;;;;;4.80;1.40;;;;;;;20.44;45.51;100295.69;5149031;28;20445;-80
2022/06/19 05:22:12;;;;;;;2.75;0.70;;;;;;;20.39;45.81;100305.84;5181354;28;20396;-82
2022/06/19 05:24:42;;;;;;;0.63;0.63;;;;;;;20.34;45.63;100298.19;5178826;28;20045;-81
2022/06/19 05:27:13;;;;;;;5.95;0.32;;;;;;;20.24;45.63;100281.19;5164895;28;20084;-81
2022/06/19 05:29:43;;;;;;;0.50;0.50;;;;;;;20.19;45.54;100294.03;5189331;28;20358;-80
2022/06/19 05:32:14;;;;;;;0.50;0.50;;;;;;;20.22;45.55;100280.47;5173118;28;20117;-82
2022/06/19 05:34:44;;;;;;;1.85;0.73;;;;;;;20.23;45.12;100296.34;5196117;28;20127;-80
2022/06/19 05:37:15;;;;;;;0.20;0.20;;;;;;;20.23;45.17;100298.16;5178462;28;20651;-82
2022/06/19 05:39:45;;;;;;;4.38;0.95;;;;;;;20.20;45.08;100277.91;5174971;28;20347;-80
2022/06/19 05:42:16;;;;;;;0.32;0.32;;;;;;;20.15;44.99;100281.88;5197611;28;20043;-80
2022/06/19 05:44:47;;;;;;;2.83;1.75;;;;;;;20.12;44.83;100273.16;5173873;28;20038;-82
2022/06/19 05:47:18;;;;;;;0.30;0.30;;;;;;;20.08;44.52;100274.34;5197795;28;20033;-81
2022/06/19 05:49:49;;;;;;;7.45;1.00;;;;;;;20.17;44.84;100275.47;5190785;28;20045;-80
2022/06/19 05:52:22;;;;;;;2.95;0.75;;;;;;;20.15;44.73;100269.44;5181711;28;20026;-81
2022/06/19 05:54:53;;;;;;;3.53;1.00;;;;;;;20.18;44.89;100258.53;5186341;28;20106;-81
2022/06/19 05:57:23;;;;;;;0.28;0.28;;;;;;;20.19;44.94;100227.44;5177418;28;20085;-82
2022/06/19 05:59:54;;;;;;;0.68;0.65;;;;;;;20.16;44.98;100232.97;5173380;28;20111;-81
2022/06/19 06:02:26;;;;;;;1.13;1.08;;;;;;;20.14;44.73;100241.09;5190616;28;20447;-80
2022/06/19 06:04:57;;;;;;;0.93;0.83;;;;;;;20.17;44.87;100208.06;5186074;28;20411;-80
2022/06/19 06:07:27;;;;;;;0.30;0.30;;;;;;;20.17;45.26;100198.22;5175228;28;20037;-81
2022/06/19 06:09:58;;;;;;;0.52;0.52;;;;;;;20.19;44.73;100201.63;5171413;28;20033;-80
2022/06/19 06:12:29;;;;;;;0.47;0.47;;;;;;;20.21;44.85;100241.47;5180489;28;20025;-80
2022/06/19 06:14:59;;;;;;;1.83;1.73;;;;;;;20.23;44.87;100223.56;5170995;28;20113;-82
2022/06/19 06:17:30;;;;;;;0.17;0.17;;;;;;;20.29;44.95;100207.97;5168044;28;20044;-80
2022/06/19 06:20:03;;;;;;;0.45;0.45;;;;;;;20.37;45.84;100201.19;5182269;28;20042;-80
2022/06/19 06:22:34;;;;;;;0.38;0.38;;;;;;;20.32;45.29;100190.06;5159986;28;20036;-82
2022/06/19 06:25:10;;;;;;;0.30;0.30;;;;;;;20.36;45.19;100205.69;5156871;28;20041;-82
2022/06/19 06:27:41;;;;;;;0.28;0.28;;;;;;;20.37;45.17;100210.03;5194845;28;20064;-83
2022/06/19 06:30:12;;;;;;;8.43;1.95;;;;;;;20.39;45.45;100224.09;5192716;28;20045;-81
2022/06/19 06:32:42;;;;;;;0.70;0.63;;;;;;;20.48;45.29;100222.56;5201801;28;20112;-80
2022/06/19 06:35:14;;;;;;;2.30;0.80;;;;;;;20.48;45.34;100230.56;5179783;28;20042;-81
2022/06/19 06:37:44;;;;;;;1.60;1.17;;;;;;;20.53;45.66;100235.53;5185628;28;20548;-80
2022/06/19 06:40:15;;;;;;;0.20;0.20;;;;;;;20.52;45.79;100245.31;5193476;28;20108;-82
2022/06/19 06:42:48;;;;;;;3.33;0.88;;;;;;;20.55;45.53;100249.56;5177427;28;20064;-82
2022/06/19 06:45:18;;;;;;;0.63;0.63;;;;;;;20.55;45.63;100258.41;5175258;28;20084;-80
2022/06/19 06:47:50;;;;;;;1.55;0.88;;;;;;;20.60;45.42;100263.41;5176429;28;20037;-82
2022/06/19 06:50:21;;;;;;;1.00;0.80;;;;;;;20.64;45.91;100272.84;5185374;28;20057;-82
2022/06/19 06:52:52;;;;;;;2.28;0.63;;;;;;;20.70;45.62;100308.84;5194539;28;20033;-80
2022/06/19 06:55:22;;;;;;;0.55;0.55;;;;;;;20.70;45.58;100323.00;5183188;28;20120;-80
2022/06/19 06:57:53;;;;;;;0.40;0.40;;;;;;;20.78;46.01;100332.31;5189485;28;20036;-79
2022/06/19 07:00:24;;;;;;;2.22;1.00;;;;;;;20.84;45.74;100354.00;5182671;28;20046;-82
2022/06/19 07:02:54;;;;;;;0.68;0.68;;;;;;;20.82;46.60;100400.41;5178566;28;20120;-80
2022/06/19 07:05:26;;;;;;;0.70;0.70;;;;;;;20.85;46.07;100422.34;5173128;28;20300;-82
2022/06/19 07:07:56;;;;;;;0.98;0.52;;;;;;;20.87;46.16;100467.56;5167168;28;20029;-81
2022/06/19 07:10:28;;;;;;;0.90;0.43;;;;;;;20.94;46.59;100457.28;5196490;28;20071;-81
2022/06/19 07:13:00;;;;;;;0.55;0.55;;;;;;;20.94;46.86;100532.81;5183942;28;20029;-81
2022/06/19 07:15:32;;;;;;;0.35;0.35;;;;;;;20.95;46.91;100587.84;5180786;28;20041;-80
2022/06/19 07:18:03;;;;;;;0.30;0.30;;;;;;;20.92;46.16;100572.06;5175660;28;20243;-80
2022/06/19 07:20:34;;;;;;;0.30;0.30;;;;;;;20.87;45.89;100550.22;5187389;28;20041;-81
2022/06/19 07:23:14;;;;;;;0.82;0.82;;;;;;;20.94;45.64;100538.16;5176240;28;20185;-81
2022/06/19 07:25:45;;;;;;;4.95;2.13;;;;;;;20.87;45.65;100561.75;5193587;28;20068;-80
2022/06/19 07:28:17;;;;;;;1.38;1.08;;;;;;;20.78;45.83;100614.91;5161170;28;20030;-81
2022/06/19 07:30:47;;;;;;;0.73;0.73;;;;;;;20.73;45.48;100561.91;5181937;28;20044;-81
2022/06/19 07:33:19;;;;;;;0.70;0.63;;;;;;;20.85;44.90;100545.00;5188767;28;20662;-81
2022/06/19 07:35:49;;;;;;;0.77;0.77;;;;;;;20.79;44.63;100541.91;5180908;28;20037;-83
2022/06/19 07:38:20;;;;;;;2.53;0.85;;;;;;;20.67;44.47;100555.16;5184942;28;20561;-83
2022/06/19 07:40:51;;;;;;;0.73;0.50;;;;;;;20.81;44.27;100537.34;5175209;28;20053;-81
2022/06/19 07:43:25;;;;;;;1.55;0.50;;;;;;;20.68;44.25;100503.56;5217186;28;20041;-83
2022/06/19 07:45:56;;;;;;;0.52;0.52;;;;;;;20.55;44.72;100535.59;5165829;28;20041;-83
2022/06/19 07:51:16;;;;;;;0.20;0.20;;;;;;;20.57;44.80;100516.81;5194184;28;20876;-79
2022/06/19 07:53:46;;;;;;;0.75;0.73;;;;;;;20.58;44.64;100515.84;5187544;28;20036;-81
2022/06/19 07:56:17;;;;;;;0.77;0.70;;;;;;;20.42;45.13;100503.66;5201913;28;20046;-81
2022/06/19 07:58:48;;;;;;;2.60;1.02;;;;;;;20.44;44.91;100509.72;5185546;28;20028;-81
2022/06/19 08:01:19;;;;;;;10.68;1.80;;;;;;;20.47;44.86;100502.44;5151174;28;20088;-82
2022/06/19 08:03:49;;;;;;;0.70;0.65;;;;;;;20.47;44.71;100507.78;5171426;28;20121;-80
2022/06/19 08:06:20;;;;;;;0.22;0.22;;;;;;;20.41;44.97;100509.09;5191396;28;20037;-81
2022/06/19 08:08:50;;;;;;;0.90;0.77;;;;;;;20.34;45.02;100506.00;5171405;28;20030;-81
2022/06/19 08:11:21;;;;;;;1.98;1.85;;;;;;;20.42;44.76;100506.31;5182942;28;20042;-79
2022/06/19 08:13:51;;;;;;;0.38;0.38;;;;;;;20.32;44.91;100513.25;5180316;28;20057;-80
2022/06/19 08:16:22;;;;;;;0.63;0.63;;;;;;;20.45;44.90;100524.72;5175745;28;20116;-80
2022/06/19 08:18:53;;;;;;;0.20;0.20;;;;;;;20.43;44.84;100550.66;5187779;28;20022;-80
2022/06/19 08:21:23;;;;;;;0.73;0.73;;;;;;;20.39;45.40;100559.81;5171635;28;20552;-82
2022/06/19 08:23:55;;;;;;;39.55;3.40;;;;;;;20.38;45.10;100565.25;5163846;28;20030;-81
2022/06/19 08:26:25;;;;;;;0.70;0.70;;;;;;;20.34;45.18;100566.41;5188273;28;20191;-79
2022/06/19 08:29:02;;;;;;;1.08;0.95;;;;;;;20.32;45.01;100563.88;5166071;28;20034;-79
2022/06/19 08:31:34;;;;;;;0.40;0.40;;;;;;;20.23;44.96;100553.84;5179673;28;20048;-79
2022/06/19 08:34:10;;;;;;;0.20;0.20;;;;;;;20.33;44.54;100551.41;5187352;28;20034;-79
2022/06/19 08:36:44;;;;;;;1.10;0.60;;;;;;;20.36;44.85;100538.72;5172925;28;20224;-81
2022/06/19 08:39:17;;;;;;;1.45;0.68;;;;;;;20.32;44.83;100525.72;5154313;28;20030;-80
2022/06/19 08:42:11;;;;;;;0.85;0.43;;;;;;;20.35;44.53;100521.03;5143029;28;20038;-80
2022/06/19 08:44:57;;;;;;;0.47;0.47;;;;;;;20.44;44.28;100498.19;5165421;28;20163;-79
2022/06/19 08:47:47;;;;;;;0.93;0.80;;;;;;;20.43;44.44;100489.34;5189974;28;20059;-83
2022/06/19 08:50:27;;;;;;;0.30;0.30;;;;;;;20.51;44.04;100509.28;5152867;28;20049;-80
2022/06/19 08:53:21;;;;;;;0.95;0.95;;;;;;;20.50;43.66;100508.41;5171734;28;20048;-83
2022/06/19 08:55:57;;;;;;;0.10;0.10;;;;;;;20.53;44.10;100502.84;5142910;28;20038;-83
2022/06/19 08:58:31;;;;;;;0.63;0.57;;;;;;;20.57;44.06;100488.38;5178111;28;20509;-83
2022/06/19 09:01:34;;;;;;;0.43;0.43;;;;;;;20.57;43.84;100491.03;5185823;28;20046;-81
2022/06/19 09:07:51;;;;;;;1.10;0.75;;;;;;;20.78;44.03;100500.25;5159383;28;20129;-83
2022/06/19 09:10:49;;;;;;;3.70;1.58;;;;;;;20.89;43.62;100492.28;5133866;28;20034;-85
2022/06/19 09:13:44;;;;;;;0.80;0.75;;;;;;;20.81;44.03;100494.69;5197795;28;20049;-83
2022/06/19 09:16:39;;;;;;;1.33;0.95;;;;;;;20.86;43.94;100503.22;5157526;28;20457;-83
2022/06/19 09:19:20;;;;;;;0.40;0.40;;;;;;;20.90;44.33;100502.88;5209127;28;20029;-86
2022/06/19 09:21:59;;;;;;;0.20;0.20;;;;;;;21.02;44.18;100487.78;5194089;28;20077;-84
2022/06/19 09:24:54;;;;;;;0.20;0.20;;;;;;;20.99;44.18;100477.31;5193901;28;20093;-82
2022/06/19 09:27:31;;;;;;;0.20;0.20;;;;;;;21.09;44.05;100484.63;5152024;28;20061;-83
2022/06/19 09:30:09;;;;;;;0.57;0.57;;;;;;;21.22;43.87;100480.94;5173662;28;20082;-82
2022/06/19 09:32:56;;;;;;;0.57;0.57;;;;;;;21.30;43.83;100484.81;5156523;28;20021;-81
2022/06/19 09:35:34;;;;;;;0.88;0.50;;;;;;;21.35;43.87;100463.97;5179500;28;20033;-80
2022/06/19 09:38:12;;;;;;;0.55;0.55;;;;;;;21.34;43.99;100449.78;5166450;28;20026;-82
2022/06/19 09:40:50;;;;;;;0.22;0.22;;;;;;;21.39;43.93;100446.75;5147944;28;20049;-82
2022/06/19 09:43:28;;;;;;;0.50;0.50;;;;;;;21.48;43.66;100442.53;5154216;28;20027;-81
2022/06/19 09:46:10;;;;;;;0.30;0.30;;;;;;;21.54;44.04;100453.56;5178682;28;20049;-81
2022/06/19 09:48:46;;;;;;;0.40;0.40;;;;;;;21.60;43.91;100446.94;5166460;28;20037;-85
2022/06/19 09:51:23;;;;;;;0.50;0.50;;;;;;;21.64;43.79;100450.22;5181521;28;20056;-85
2022/06/19 09:54:14;;;;;;;1.27;1.17;;;;;;;21.74;44.18;100466.38;5204255;28;20131;-82
2022/06/19 09:57:09;;;;;;;0.45;0.45;;;;;;;21.77;43.11;100442.09;5184190;28;20657;-83
2022/06/19 09:59:58;;;;;;;0.30;0.30;;;;;;;21.82;43.51;100458.59;5156126;28;20516;-82
2022/06/19 10:02:47;;;;;;;0.20;0.20;;;;;;;21.78;44.03;100393.91;5183065;28;20021;-81
2022/06/19 10:05:53;;;;;;;0.63;0.63;;;;;;;21.43;44.17;100170.66;5182744;28;20274;-80
2022/06/19 10:08:37;;;;;;;0.40;0.40;;;;;;;21.53;45.57;100152.06;5187512;28;20026;-84
2022/06/19 10:11:25;;;;;;;0.40;0.40;;;;;;;21.69;45.33;100186.41;5177494;28;20638;-81
2022/06/19 10:14:26;;;;;;;0.43;0.43;;;;;;;21.60;45.74;100139.97;5182235;28;20029;-83
2022/06/19 10:17:02;;;;;;;0.75;0.47;;;;;;;21.70;46.12;100140.88;5203581;28;20025;-81
2022/06/19 10:19:41;;;;;;;0.80;0.80;;;;;;;21.58;46.20;100175.75;5191917;28;20063;-83
2022/06/19 10:22:47;;;;;;;0.20;0.20;;;;;;;21.76;46.06;100283.69;5186683;28;20036;-86
2022/06/19 10:25:40;;;;;;;0.50;0.50;;;;;;;21.84;46.29;100361.38;5149947;28;20038;-80
2022/06/19 10:28:23;;;;;;;0.50;0.50;;;;;;;21.81;45.79;100334.06;5170345;28;20021;-85
2022/06/19 10:31:46;;;;;;;0.40;0.40;;;;;;;21.85;45.38;100356.88;5152355;28;20110;-84
2022/06/19 10:34:26;;;;;;;1.08;0.43;;;;;;;21.92;45.17;100366.09;5158891;28;20037;-83
2022/06/19 10:37:24;;;;;;;0.98;0.90;;;;;;;21.93;45.67;100356.25;5158815;28;20521;-82
2022/06/19 10:40:14;;;;;;;0.30;0.30;;;;;;;21.92;45.12;100358.09;5179128;28;20050;-83
2022/06/19 10:43:10;;;;;;;1.27;0.80;;;;;;;21.97;44.99;100377.25;5183432;28;20093;-81
2022/06/19 10:45:46;;;;;;;5.25;2.63;;;;;;;22.10;44.63;100400.31;5206079;28;20037;-82
2022/06/19 10:48:50;;;;;;;0.45;0.45;;;;;;;22.09;44.69;100425.31;5164982;28;20029;-82
2022/06/19 10:51:29;;;;;;;0.57;0.57;;;;;;;22.09;44.94;100423.50;5086431;29;20047;-83
2022/06/19 10:54:48;;;;;;;0.75;0.75;;;;;;;22.18;44.55;100408.56;5190509;28;20142;-82
2022/06/19 10:57:34;;;;;;;1.27;0.57;;;;;;;22.22;44.87;100380.59;5156944;28;20044;-82
2022/06/19 11:00:07;;;;;;;1.95;1.42;;;;;;;22.26;44.94;100406.09;5167303;28;20049;-83
2022/06/19 11:06:17;;;;;;;0.40;0.40;;;;;;;22.40;44.45;100393.47;5127366;28;20039;-82
2022/06/19 11:09:00;;;;;;;0.60;0.60;;;;;;;22.46;43.84;100371.56;5182532;28;20826;-82
2022/06/19 11:11:37;;;;;;;0.85;0.85;;;;;;;22.63;43.13;100362.16;5181788;28;20099;-85
2022/06/19 11:14:10;;;;;;;0.30;0.30;;;;;;;22.68;43.50;100337.69;5156964;28;20025;-83
2022/06/19 11:17:04;;;;;;;0.60;0.40;;;;;;;22.69;43.26;100323.31;5191588;28;20437;-82
2022/06/19 11:19:34;;;;;;;0.20;0.20;;;;;;;22.74;43.43;100331.81;5188936;28;20570;-83
2022/06/19 11:22:22;;;;;;;7.95;0.68;;;;;;;22.76;43.77;100336.06;5178905;28;20042;-83
2022/06/19 11:24:55;;;;;;;0.35;0.35;;;;;;;22.80;43.40;100352.69;5182213;28;20030;-83
2022/06/19 11:27:26;;;;;;;0.35;0.35;;;;;;;22.89;42.88;100359.94;5171206;28;20021;-81
2022/06/19 11:29:59;;;;;;;0.30;0.30;;;;;;;22.93;42.60;100356.00;5192243;28;20044;-83
2022/06/19 11:32:30;;;;;;;2.45;1.45;;;;;;;22.79;42.69;100373.25;5185257;28;20099;-85
2022/06/19 11:35:05;;;;;;;0.40;0.40;;;;;;;22.90;42.93;100375.00;5175563;28;20053;-83
2022/06/19 11:37:48;;;;;;;0.60;0.60;;;;;;;22.99;42.94;100372.53;5187039;28;20040;-83
2022/06/19 11:40:29;;;;;;;0.43;0.43;;;;;;;22.92;42.71;100394.47;5154870;28;20050;-84
2022/06/19 11:43:04;;;;;;;;;;;;;;;22.90;42.81;100422.28;5168840;28;20032;-83
2022/06/19 11:45:38;;;;;;;0.75;0.75;;;;;;;23.00;42.69;100428.56;5179896;28;19971;-81
2022/06/19 11:48:13;;;;;;;0.38;0.35;;;;;;;22.97;42.70;100439.56;5199655;28;20044;-85
2022/06/19 11:50:51;;;;;;;1.13;1.13;;;;;;;22.93;42.89;100444.28;5183167;28;20604;-84
2022/06/19 11:53:27;;;;;;;0.45;0.45;;;;;;;22.98;42.97;100451.94;5178337;28;20102;-83
2022/06/19 11:56:31;;;;;;;1.65;1.17;;;;;;;22.86;42.36;100464.50;5203269;28;20057;-82
2022/06/19 11:59:04;;;;;;;0.20;0.20;;;;;;;22.92;42.66;100457.78;5169562;28;20068;-83
2022/06/19 12:01:40;;;;;;;8.15;1.85;;;;;;;22.99;42.93;100458.97;5172410;28;20052;-81
2022/06/19 12:04:40;;;;;;;0.65;0.65;;;;;;;22.87;42.75;100460.84;5162094;28;20116;-83
2022/06/19 12:07:30;;;;;;;5.38;1.23;;;;;;;22.99;42.47;100458.16;5173898;28;20036;-83
2022/06/19 12:10:25;;;;;;;0.25;0.25;;;;;;;22.99;42.64;100432.22;5193487;28;20044;-83
2022/06/19 12:13:00;;;;;;;0.20;0.20;;;;;;;23.05;42.49;100406.78;5205337;28;20033;-82
2022/06/19 12:15:35;;;;;;;2.35;1.27;;;;;;;23.15;42.40;100407.72;5160961;28;20026;-83